sensor_id;sensor_type;location;lat;lon;timestamp;P1;durP1;ratioP1;P2;durP2;ratioP2
78612;SDS011;67933;51.060;3.638;2023-07-13T00:01:43;8.23;;;2.15;;
78612;SDS011;67933;51.060;3.638;2023-07-13T00:06:36;8.93;;;2.42;;
78612;SDS011;67933;51.060;3.638;2023-07-13T00:09:02;12.25;;;2.40;;
78612;SDS011;67933;51.060;3.638;2023-07-13T00:11:27;10.63;;;2.80;;
78612;SDS011;67933;51.060;3.638;2023-07-13T00:13:53;7.07;;;2.35;;
78612;SDS011;67933;51.060;3.638;2023-07-13T00:16:19;9.90;;;2.70;;
78612;SDS011;67933;51.060;3.638;2023-07-13T00:18:45;11.77;;;2.70;;
78612;SDS011;67933;51.060;3.638;2023-07-13T00:21:11;7.22;;;2.60;;
78612;SDS011;67933;51.060;3.638;2023-07-13T00:23:39;9.98;;;2.70;;
78612;SDS011;67933;51.060;3.638;2023-07-13T00:26:07;7.93;;;2.65;;
78612;SDS011;67933;51.060;3.638;2023-07-13T00:28:34;7.70;;;3.33;;
78612;SDS011;67933;51.060;3.638;2023-07-13T00:31:01;7.78;;;2.83;;
78612;SDS011;67933;51.060;3.638;2023-07-13T00:33:27;11.98;;;3.58;;
78612;SDS011;67933;51.060;3.638;2023-07-13T00:35:54;8.93;;;2.63;;
78612;SDS011;67933;51.060;3.638;2023-07-13T00:38:20;10.27;;;2.83;;
78612;SDS011;67933;51.060;3.638;2023-07-13T00:40:49;8.65;;;3.05;;
78612;SDS011;67933;51.060;3.638;2023-07-13T00:43:18;9.57;;;3.03;;
78612;SDS011;67933;51.060;3.638;2023-07-13T00:48:11;8.23;;;2.85;;
78612;SDS011;67933;51.060;3.638;2023-07-13T00:50:39;10.95;;;3.50;;
78612;SDS011;67933;51.060;3.638;2023-07-13T00:53:06;11.00;;;3.25;;
78612;SDS011;67933;51.060;3.638;2023-07-13T00:55:32;5.55;;;2.67;;
78612;SDS011;67933;51.060;3.638;2023-07-13T00:57:58;10.77;;;3.17;;
78612;SDS011;67933;51.060;3.638;2023-07-13T01:00:24;9.77;;;3.42;;
78612;SDS011;67933;51.060;3.638;2023-07-13T01:02:51;9.45;;;2.60;;
78612;SDS011;67933;51.060;3.638;2023-07-13T01:05:19;7.03;;;2.67;;
78612;SDS011;67933;51.060;3.638;2023-07-13T01:07:46;10.68;;;3.13;;
78612;SDS011;67933;51.060;3.638;2023-07-13T01:10:13;13.57;;;3.28;;
78612;SDS011;67933;51.060;3.638;2023-07-13T01:12:39;14.07;;;3.10;;
78612;SDS011;67933;51.060;3.638;2023-07-13T01:15:05;12.20;;;4.03;;
78612;SDS011;67933;51.060;3.638;2023-07-13T01:17:51;11.43;;;3.58;;
78612;SDS011;67933;51.060;3.638;2023-07-13T01:20:16;11.45;;;3.13;;
78612;SDS011;67933;51.060;3.638;2023-07-13T01:22:42;9.35;;;3.25;;
78612;SDS011;67933;51.060;3.638;2023-07-13T01:25:07;9.02;;;3.65;;
78612;SDS011;67933;51.060;3.638;2023-07-13T01:27:33;13.07;;;4.10;;
78612;SDS011;67933;51.060;3.638;2023-07-13T01:29:59;10.80;;;3.35;;
78612;SDS011;67933;51.060;3.638;2023-07-13T01:32:29;10.55;;;3.97;;
78612;SDS011;67933;51.060;3.638;2023-07-13T01:34:56;12.07;;;4.20;;
78612;SDS011;67933;51.060;3.638;2023-07-13T01:37:22;14.88;;;3.88;;
78612;SDS011;67933;51.060;3.638;2023-07-13T01:39:48;9.90;;;3.47;;
78612;SDS011;67933;51.060;3.638;2023-07-13T01:42:14;15.10;;;4.35;;
78612;SDS011;67933;51.060;3.638;2023-07-13T01:44:40;13.20;;;3.97;;
78612;SDS011;67933;51.060;3.638;2023-07-13T01:47:05;12.02;;;4.18;;
78612;SDS011;67933;51.060;3.638;2023-07-13T01:49:31;11.57;;;3.60;;
78612;SDS011;67933;51.060;3.638;2023-07-13T01:51:56;10.18;;;4.18;;
78612;SDS011;67933;51.060;3.638;2023-07-13T01:54:22;14.63;;;4.07;;
78612;SDS011;67933;51.060;3.638;2023-07-13T01:56:47;12.27;;;4.43;;
78612;SDS011;67933;51.060;3.638;2023-07-13T01:59:13;12.82;;;3.90;;
78612;SDS011;67933;51.060;3.638;2023-07-13T02:01:38;12.30;;;4.68;;
78612;SDS011;67933;51.060;3.638;2023-07-13T02:04:04;10.85;;;3.53;;
78612;SDS011;67933;51.060;3.638;2023-07-13T02:06:29;12.57;;;4.10;;
78612;SDS011;67933;51.060;3.638;2023-07-13T02:08:55;9.88;;;4.03;;
78612;SDS011;67933;51.060;3.638;2023-07-13T02:11:20;11.10;;;3.80;;
78612;SDS011;67933;51.060;3.638;2023-07-13T02:13:46;16.30;;;4.60;;
78612;SDS011;67933;51.060;3.638;2023-07-13T02:16:11;12.75;;;4.13;;
78612;SDS011;67933;51.060;3.638;2023-07-13T02:18:37;11.63;;;4.28;;
78612;SDS011;67933;51.060;3.638;2023-07-13T02:21:02;16.55;;;3.97;;
78612;SDS011;67933;51.060;3.638;2023-07-13T02:23:28;17.95;;;4.72;;
78612;SDS011;67933;51.060;3.638;2023-07-13T02:25:55;13.43;;;4.15;;
78612;SDS011;67933;51.060;3.638;2023-07-13T02:28:21;17.98;;;4.45;;
78612;SDS011;67933;51.060;3.638;2023-07-13T02:30:46;15.45;;;4.53;;
78612;SDS011;67933;51.060;3.638;2023-07-13T02:33:12;8.55;;;3.63;;
78612;SDS011;67933;51.060;3.638;2023-07-13T02:35:37;14.98;;;4.63;;
78612;SDS011;67933;51.060;3.638;2023-07-13T02:38:03;16.70;;;4.63;;
78612;SDS011;67933;51.060;3.638;2023-07-13T02:40:29;13.95;;;4.25;;
78612;SDS011;67933;51.060;3.638;2023-07-13T02:42:54;15.15;;;4.72;;
78612;SDS011;67933;51.060;3.638;2023-07-13T02:45:19;15.27;;;4.22;;
78612;SDS011;67933;51.060;3.638;2023-07-13T02:47:45;14.25;;;4.38;;
78612;SDS011;67933;51.060;3.638;2023-07-13T02:50:10;19.33;;;5.38;;
78612;SDS011;67933;51.060;3.638;2023-07-13T02:52:36;17.40;;;5.45;;
78612;SDS011;67933;51.060;3.638;2023-07-13T02:55:01;16.50;;;5.15;;
78612;SDS011;67933;51.060;3.638;2023-07-13T02:57:27;19.27;;;5.70;;
78612;SDS011;67933;51.060;3.638;2023-07-13T02:59:53;18.80;;;6.18;;
78612;SDS011;67933;51.060;3.638;2023-07-13T03:02:19;24.65;;;4.75;;
78612;SDS011;67933;51.060;3.638;2023-07-13T03:04:45;19.60;;;5.68;;
78612;SDS011;67933;51.060;3.638;2023-07-13T03:07:10;19.67;;;5.30;;
78612;SDS011;67933;51.060;3.638;2023-07-13T03:09:36;15.48;;;5.13;;
78612;SDS011;67933;51.060;3.638;2023-07-13T03:12:02;15.93;;;5.43;;
78612;SDS011;67933;51.060;3.638;2023-07-13T03:14:28;21.38;;;5.22;;
78612;SDS011;67933;51.060;3.638;2023-07-13T03:16:53;18.17;;;5.68;;
78612;SDS011;67933;51.060;3.638;2023-07-13T03:19:19;17.05;;;5.97;;
78612;SDS011;67933;51.060;3.638;2023-07-13T03:21:44;15.48;;;5.60;;
78612;SDS011;67933;51.060;3.638;2023-07-13T03:24:10;17.08;;;5.40;;
78612;SDS011;67933;51.060;3.638;2023-07-13T03:26:36;16.25;;;5.43;;
78612;SDS011;67933;51.060;3.638;2023-07-13T03:29:01;19.58;;;5.63;;
78612;SDS011;67933;51.060;3.638;2023-07-13T03:31:27;19.83;;;5.28;;
78612;SDS011;67933;51.060;3.638;2023-07-13T03:33:55;14.25;;;5.50;;
78612;SDS011;67933;51.060;3.638;2023-07-13T03:36:25;14.27;;;5.00;;
78612;SDS011;67933;51.060;3.638;2023-07-13T03:38:53;12.90;;;4.88;;
78612;SDS011;67933;51.060;3.638;2023-07-13T03:41:21;17.23;;;5.15;;
78612;SDS011;67933;51.060;3.638;2023-07-13T03:43:47;13.90;;;6.18;;
78612;SDS011;67933;51.060;3.638;2023-07-13T03:46:13;15.30;;;5.32;;
78612;SDS011;67933;51.060;3.638;2023-07-13T03:48:39;19.45;;;5.97;;
78612;SDS011;67933;51.060;3.638;2023-07-13T03:51:07;13.50;;;5.15;;
78612;SDS011;67933;51.060;3.638;2023-07-13T03:53:34;16.50;;;4.95;;
78612;SDS011;67933;51.060;3.638;2023-07-13T03:56:03;12.27;;;5.00;;
78612;SDS011;67933;51.060;3.638;2023-07-13T03:58:38;14.55;;;5.15;;
78612;SDS011;67933;51.060;3.638;2023-07-13T04:01:06;14.77;;;4.97;;
78612;SDS011;67933;51.060;3.638;2023-07-13T04:03:33;14.65;;;4.38;;
78612;SDS011;67933;51.060;3.638;2023-07-13T04:06:00;15.35;;;4.15;;
78612;SDS011;67933;51.060;3.638;2023-07-13T04:08:29;11.80;;;4.18;;
78612;SDS011;67933;51.060;3.638;2023-07-13T04:10:56;10.75;;;4.50;;
78612;SDS011;67933;51.060;3.638;2023-07-13T04:13:23;16.02;;;5.20;;
78612;SDS011;67933;51.060;3.638;2023-07-13T04:15:49;13.65;;;5.15;;
78612;SDS011;67933;51.060;3.638;2023-07-13T04:18:14;15.77;;;4.65;;
78612;SDS011;67933;51.060;3.638;2023-07-13T04:20:39;11.35;;;4.90;;
78612;SDS011;67933;51.060;3.638;2023-07-13T04:23:05;12.27;;;4.57;;
78612;SDS011;67933;51.060;3.638;2023-07-13T04:25:30;14.38;;;4.80;;
78612;SDS011;67933;51.060;3.638;2023-07-13T04:27:56;13.45;;;4.85;;
78612;SDS011;67933;51.060;3.638;2023-07-13T04:30:21;11.30;;;4.35;;
78612;SDS011;67933;51.060;3.638;2023-07-13T04:32:47;13.02;;;5.00;;
78612;SDS011;67933;51.060;3.638;2023-07-13T04:35:13;17.15;;;4.03;;
78612;SDS011;67933;51.060;3.638;2023-07-13T04:37:39;11.02;;;4.38;;
78612;SDS011;67933;51.060;3.638;2023-07-13T04:40:05;22.92;;;4.90;;
78612;SDS011;67933;51.060;3.638;2023-07-13T04:42:31;18.52;;;4.57;;
78612;SDS011;67933;51.060;3.638;2023-07-13T04:47:24;15.55;;;4.70;;
78612;SDS011;67933;51.060;3.638;2023-07-13T04:49:50;14.20;;;4.68;;
78612;SDS011;67933;51.060;3.638;2023-07-13T04:52:15;17.73;;;4.85;;
78612;SDS011;67933;51.060;3.638;2023-07-13T04:54:41;11.82;;;4.55;;
78612;SDS011;67933;51.060;3.638;2023-07-13T04:57:07;16.33;;;5.50;;
78612;SDS011;67933;51.060;3.638;2023-07-13T04:59:32;16.10;;;4.93;;
78612;SDS011;67933;51.060;3.638;2023-07-13T05:01:58;11.55;;;3.85;;
78612;SDS011;67933;51.060;3.638;2023-07-13T05:04:23;12.70;;;4.65;;
78612;SDS011;67933;51.060;3.638;2023-07-13T05:06:49;15.77;;;4.97;;
78612;SDS011;67933;51.060;3.638;2023-07-13T05:09:15;13.93;;;4.72;;
78612;SDS011;67933;51.060;3.638;2023-07-13T05:11:40;15.55;;;4.80;;
78612;SDS011;67933;51.060;3.638;2023-07-13T05:14:05;12.65;;;3.95;;
78612;SDS011;67933;51.060;3.638;2023-07-13T05:16:31;12.15;;;4.68;;
78612;SDS011;67933;51.060;3.638;2023-07-13T05:18:57;13.48;;;4.50;;
78612;SDS011;67933;51.060;3.638;2023-07-13T05:21:23;14.63;;;4.82;;
78612;SDS011;67933;51.060;3.638;2023-07-13T05:23:49;14.30;;;4.85;;
78612;SDS011;67933;51.060;3.638;2023-07-13T05:26:15;14.18;;;4.93;;
78612;SDS011;67933;51.060;3.638;2023-07-13T05:28:40;14.77;;;4.63;;
78612;SDS011;67933;51.060;3.638;2023-07-13T05:31:07;9.35;;;4.05;;
78612;SDS011;67933;51.060;3.638;2023-07-13T05:33:33;11.70;;;4.40;;
78612;SDS011;67933;51.060;3.638;2023-07-13T05:35:59;14.00;;;4.07;;
78612;SDS011;67933;51.060;3.638;2023-07-13T05:38:25;14.70;;;4.88;;
78612;SDS011;67933;51.060;3.638;2023-07-13T05:40:52;16.70;;;4.63;;
78612;SDS011;67933;51.060;3.638;2023-07-13T05:43:20;13.05;;;4.68;;
78612;SDS011;67933;51.060;3.638;2023-07-13T05:45:46;16.77;;;5.03;;
78612;SDS011;67933;51.060;3.638;2023-07-13T05:48:11;14.35;;;4.95;;
78612;SDS011;67933;51.060;3.638;2023-07-13T05:50:36;10.05;;;5.00;;
78612;SDS011;67933;51.060;3.638;2023-07-13T05:53:02;16.90;;;5.43;;
78612;SDS011;67933;51.060;3.638;2023-07-13T05:55:28;12.35;;;4.88;;
78612;SDS011;67933;51.060;3.638;2023-07-13T05:57:54;11.57;;;4.47;;
78612;SDS011;67933;51.060;3.638;2023-07-13T06:00:19;15.35;;;5.22;;
78612;SDS011;67933;51.060;3.638;2023-07-13T06:02:45;13.25;;;4.45;;
78612;SDS011;67933;51.060;3.638;2023-07-13T06:05:10;17.50;;;4.70;;
78612;SDS011;67933;51.060;3.638;2023-07-13T06:07:36;12.93;;;4.57;;
78612;SDS011;67933;51.060;3.638;2023-07-13T06:10:01;11.60;;;4.15;;
78612;SDS011;67933;51.060;3.638;2023-07-13T06:12:27;12.10;;;3.92;;
78612;SDS011;67933;51.060;3.638;2023-07-13T06:14:52;14.63;;;4.43;;
78612;SDS011;67933;51.060;3.638;2023-07-13T06:17:17;13.77;;;4.65;;
78612;SDS011;67933;51.060;3.638;2023-07-13T06:19:43;19.90;;;4.78;;
78612;SDS011;67933;51.060;3.638;2023-07-13T06:22:09;13.63;;;4.00;;
78612;SDS011;67933;51.060;3.638;2023-07-13T06:24:34;9.82;;;4.07;;
78612;SDS011;67933;51.060;3.638;2023-07-13T06:26:59;11.00;;;3.65;;
78612;SDS011;67933;51.060;3.638;2023-07-13T06:29:25;13.32;;;4.50;;
78612;SDS011;67933;51.060;3.638;2023-07-13T06:31:50;12.93;;;4.32;;
78612;SDS011;67933;51.060;3.638;2023-07-13T06:34:16;14.13;;;4.95;;
78612;SDS011;67933;51.060;3.638;2023-07-13T06:36:41;14.52;;;4.10;;
78612;SDS011;67933;51.060;3.638;2023-07-13T06:39:06;15.70;;;5.13;;
78612;SDS011;67933;51.060;3.638;2023-07-13T06:41:32;16.42;;;4.20;;
78612;SDS011;67933;51.060;3.638;2023-07-13T06:43:58;11.65;;;5.15;;
78612;SDS011;67933;51.060;3.638;2023-07-13T06:46:24;14.35;;;4.13;;
78612;SDS011;67933;51.060;3.638;2023-07-13T06:48:50;11.95;;;4.13;;
78612;SDS011;67933;51.060;3.638;2023-07-13T06:51:15;9.77;;;3.70;;
78612;SDS011;67933;51.060;3.638;2023-07-13T06:53:41;15.23;;;4.30;;
78612;SDS011;67933;51.060;3.638;2023-07-13T06:56:08;10.18;;;4.07;;
78612;SDS011;67933;51.060;3.638;2023-07-13T06:58:35;10.38;;;3.75;;
78612;SDS011;67933;51.060;3.638;2023-07-13T07:01:00;12.63;;;3.88;;
78612;SDS011;67933;51.060;3.638;2023-07-13T07:03:26;13.07;;;3.88;;
78612;SDS011;67933;51.060;3.638;2023-07-13T07:05:51;11.30;;;3.70;;
78612;SDS011;67933;51.060;3.638;2023-07-13T07:08:17;9.15;;;3.60;;
78612;SDS011;67933;51.060;3.638;2023-07-13T07:10:42;11.38;;;4.05;;
78612;SDS011;67933;51.060;3.638;2023-07-13T07:13:08;9.18;;;3.63;;
78612;SDS011;67933;51.060;3.638;2023-07-13T07:15:34;11.02;;;3.55;;
78612;SDS011;67933;51.060;3.638;2023-07-13T07:18:00;10.43;;;3.50;;
78612;SDS011;67933;51.060;3.638;2023-07-13T07:20:25;15.70;;;3.92;;
78612;SDS011;67933;51.060;3.638;2023-07-13T07:22:51;8.13;;;2.85;;
78612;SDS011;67933;51.060;3.638;2023-07-13T07:25:17;8.40;;;3.10;;
78612;SDS011;67933;51.060;3.638;2023-07-13T07:27:42;9.38;;;3.45;;
78612;SDS011;67933;51.060;3.638;2023-07-13T07:30:08;12.27;;;3.92;;
78612;SDS011;67933;51.060;3.638;2023-07-13T07:32:34;8.77;;;3.17;;
78612;SDS011;67933;51.060;3.638;2023-07-13T07:34:59;9.60;;;3.15;;
78612;SDS011;67933;51.060;3.638;2023-07-13T07:37:25;7.93;;;3.05;;
78612;SDS011;67933;51.060;3.638;2023-07-13T07:39:50;11.38;;;3.40;;
78612;SDS011;67933;51.060;3.638;2023-07-13T07:42:16;6.82;;;2.83;;
78612;SDS011;67933;51.060;3.638;2023-07-13T07:44:41;8.48;;;2.90;;
78612;SDS011;67933;51.060;3.638;2023-07-13T07:47:07;8.68;;;3.05;;
78612;SDS011;67933;51.060;3.638;2023-07-13T07:49:34;6.72;;;2.78;;
78612;SDS011;67933;51.060;3.638;2023-07-13T07:52:00;8.07;;;2.90;;
78612;SDS011;67933;51.060;3.638;2023-07-13T07:54:26;7.20;;;3.10;;
78612;SDS011;67933;51.060;3.638;2023-07-13T07:56:51;9.20;;;2.92;;
78612;SDS011;67933;51.060;3.638;2023-07-13T07:59:17;5.55;;;2.50;;
78612;SDS011;67933;51.060;3.638;2023-07-13T08:01:42;7.00;;;2.88;;
78612;SDS011;67933;51.060;3.638;2023-07-13T08:04:08;9.70;;;3.55;;
78612;SDS011;67933;51.060;3.638;2023-07-13T08:06:34;7.93;;;3.20;;
78612;SDS011;67933;51.060;3.638;2023-07-13T08:09:00;9.30;;;2.70;;
78612;SDS011;67933;51.060;3.638;2023-07-13T08:11:26;5.18;;;2.20;;
78612;SDS011;67933;51.060;3.638;2023-07-13T08:13:51;8.45;;;2.20;;
78612;SDS011;67933;51.060;3.638;2023-07-13T08:16:17;5.43;;;2.30;;
78612;SDS011;67933;51.060;3.638;2023-07-13T08:18:42;7.07;;;2.30;;
78612;SDS011;67933;51.060;3.638;2023-07-13T08:21:08;5.57;;;2.35;;
78612;SDS011;67933;51.060;3.638;2023-07-13T08:23:34;5.75;;;2.45;;
78612;SDS011;67933;51.060;3.638;2023-07-13T08:26:00;5.40;;;2.47;;
78612;SDS011;67933;51.060;3.638;2023-07-13T08:28:26;8.13;;;3.10;;
78612;SDS011;67933;51.060;3.638;2023-07-13T08:30:53;7.38;;;2.25;;
78612;SDS011;67933;51.060;3.638;2023-07-13T08:33:19;6.15;;;2.72;;
78612;SDS011;67933;51.060;3.638;2023-07-13T08:35:48;9.30;;;2.85;;
78612;SDS011;67933;51.060;3.638;2023-07-13T08:38:14;9.10;;;3.15;;
78612;SDS011;67933;51.060;3.638;2023-07-13T08:40:41;8.63;;;2.85;;
78612;SDS011;67933;51.060;3.638;2023-07-13T08:43:18;8.05;;;2.63;;
78612;SDS011;67933;51.060;3.638;2023-07-13T08:45:51;4.45;;;2.10;;
78612;SDS011;67933;51.060;3.638;2023-07-13T08:53:40;6.28;;;2.30;;
78612;SDS011;67933;51.060;3.638;2023-07-13T08:56:14;6.80;;;2.85;;
78612;SDS011;67933;51.060;3.638;2023-07-13T08:58:43;4.63;;;2.40;;
78612;SDS011;67933;51.060;3.638;2023-07-13T09:01:18;6.82;;;2.28;;
78612;SDS011;67933;51.060;3.638;2023-07-13T09:06:31;7.93;;;2.40;;
78612;SDS011;67933;51.060;3.638;2023-07-13T09:09:10;5.50;;;2.20;;
78612;SDS011;67933;51.060;3.638;2023-07-13T09:17:14;6.25;;;2.50;;
78612;SDS011;67933;51.060;3.638;2023-07-13T09:19:50;6.22;;;2.58;;
78612;SDS011;67933;51.060;3.638;2023-07-13T09:22:21;6.57;;;2.75;;
78612;SDS011;67933;51.060;3.638;2023-07-13T09:24:54;4.72;;;2.30;;
78612;SDS011;67933;51.060;3.638;2023-07-13T09:27:43;7.20;;;2.40;;
78612;SDS011;67933;51.060;3.638;2023-07-13T09:32:47;5.90;;;2.60;;
78612;SDS011;67933;51.060;3.638;2023-07-13T09:35:18;6.90;;;2.72;;
78612;SDS011;67933;51.060;3.638;2023-07-13T09:37:46;5.97;;;2.38;;
78612;SDS011;67933;51.060;3.638;2023-07-13T09:40:17;7.63;;;2.40;;
78612;SDS011;67933;51.060;3.638;2023-07-13T09:42:51;4.32;;;2.40;;
78612;SDS011;67933;51.060;3.638;2023-07-13T09:45:28;6.20;;;2.85;;
78612;SDS011;67933;51.060;3.638;2023-07-13T09:48:11;7.65;;;2.30;;
78612;SDS011;67933;51.060;3.638;2023-07-13T09:50:38;9.20;;;2.63;;
78612;SDS011;67933;51.060;3.638;2023-07-13T09:53:04;8.63;;;2.25;;
78612;SDS011;67933;51.060;3.638;2023-07-13T09:55:39;5.03;;;2.28;;
78612;SDS011;67933;51.060;3.638;2023-07-13T10:00:35;5.97;;;2.90;;
78612;SDS011;67933;51.060;3.638;2023-07-13T10:03:02;5.50;;;2.40;;
78612;SDS011;67933;51.060;3.638;2023-07-13T10:05:41;5.10;;;2.20;;
78612;SDS011;67933;51.060;3.638;2023-07-13T10:08:22;8.77;;;2.53;;
78612;SDS011;67933;51.060;3.638;2023-07-13T10:11:00;5.05;;;2.03;;
78612;SDS011;67933;51.060;3.638;2023-07-13T10:13:34;7.97;;;2.13;;
78612;SDS011;67933;51.060;3.638;2023-07-13T10:16:02;4.90;;;1.90;;
78612;SDS011;67933;51.060;3.638;2023-07-13T10:18:30;6.88;;;2.20;;
78612;SDS011;67933;51.060;3.638;2023-07-13T10:21:08;8.23;;;2.65;;
78612;SDS011;67933;51.060;3.638;2023-07-13T10:23:37;6.32;;;2.30;;
78612;SDS011;67933;51.060;3.638;2023-07-13T10:26:02;5.22;;;2.00;;
78612;SDS011;67933;51.060;3.638;2023-07-13T10:28:30;7.75;;;2.30;;
78612;SDS011;67933;51.060;3.638;2023-07-13T10:31:00;6.18;;;2.15;;
78612;SDS011;67933;51.060;3.638;2023-07-13T10:33:27;6.15;;;2.13;;
78612;SDS011;67933;51.060;3.638;2023-07-13T10:35:55;5.63;;;2.00;;
78612;SDS011;67933;51.060;3.638;2023-07-13T10:38:38;6.10;;;2.60;;
78612;SDS011;67933;51.060;3.638;2023-07-13T10:41:10;5.30;;;2.40;;
78612;SDS011;67933;51.060;3.638;2023-07-13T10:43:44;5.15;;;2.78;;
78612;SDS011;67933;51.060;3.638;2023-07-13T10:46:13;10.52;;;3.25;;
78612;SDS011;67933;51.060;3.638;2023-07-13T10:48:40;5.28;;;3.28;;
78612;SDS011;67933;51.060;3.638;2023-07-13T10:51:08;6.28;;;3.63;;
78612;SDS011;67933;51.060;3.638;2023-07-13T10:53:37;6.45;;;3.70;;
78612;SDS011;67933;51.060;3.638;2023-07-13T10:58:38;9.63;;;3.55;;
78612;SDS011;67933;51.060;3.638;2023-07-13T11:03:31;7.20;;;3.03;;
78612;SDS011;67933;51.060;3.638;2023-07-13T11:14:00;4.43;;;2.67;;
78612;SDS011;67933;51.060;3.638;2023-07-13T11:16:38;4.00;;;2.92;;
78612;SDS011;67933;51.060;3.638;2023-07-13T11:24:30;8.07;;;2.45;;
78612;SDS011;67933;51.060;3.638;2023-07-13T11:27:20;6.25;;;2.42;;
78612;SDS011;67933;51.060;3.638;2023-07-13T11:30:35;3.80;;;2.72;;
78612;SDS011;67933;51.060;3.638;2023-07-13T11:38:55;5.03;;;3.13;;
78612;SDS011;67933;51.060;3.638;2023-07-13T11:43:48;5.57;;;3.00;;
78612;SDS011;67933;51.060;3.638;2023-07-13T11:46:26;5.63;;;2.95;;
78612;SDS011;67933;51.060;3.638;2023-07-13T11:48:53;6.70;;;3.15;;
78612;SDS011;67933;51.060;3.638;2023-07-13T11:51:31;4.88;;;2.53;;
78612;SDS011;67933;51.060;3.638;2023-07-13T11:54:06;4.78;;;3.03;;
78612;SDS011;67933;51.060;3.638;2023-07-13T11:56:49;5.72;;;3.20;;
78612;SDS011;67933;51.060;3.638;2023-07-13T11:59:15;6.90;;;3.55;;
78612;SDS011;67933;51.060;3.638;2023-07-13T12:01:45;5.50;;;3.40;;
78612;SDS011;67933;51.060;3.638;2023-07-13T12:04:24;6.30;;;3.25;;
78612;SDS011;67933;51.060;3.638;2023-07-13T12:07:14;4.07;;;2.70;;
78612;SDS011;67933;51.060;3.638;2023-07-13T12:09:41;4.05;;;2.42;;
78612;SDS011;67933;51.060;3.638;2023-07-13T12:12:17;5.03;;;2.58;;
78612;SDS011;67933;51.060;3.638;2023-07-13T12:14:44;5.80;;;2.58;;
78612;SDS011;67933;51.060;3.638;2023-07-13T12:17:18;4.88;;;2.63;;
78612;SDS011;67933;51.060;3.638;2023-07-13T12:19:46;4.25;;;2.50;;
78612;SDS011;67933;51.060;3.638;2023-07-13T12:22:13;5.18;;;2.05;;
78612;SDS011;67933;51.060;3.638;2023-07-13T12:24:41;5.00;;;2.42;;
78612;SDS011;67933;51.060;3.638;2023-07-13T12:27:21;5.43;;;2.50;;
78612;SDS011;67933;51.060;3.638;2023-07-13T12:29:53;3.85;;;2.20;;
78612;SDS011;67933;51.060;3.638;2023-07-13T12:32:24;4.35;;;2.10;;
78612;SDS011;67933;51.060;3.638;2023-07-13T12:34:54;5.07;;;3.03;;
78612;SDS011;67933;51.060;3.638;2023-07-13T12:37:21;5.05;;;2.72;;
78612;SDS011;67933;51.060;3.638;2023-07-13T12:39:48;4.53;;;3.13;;
78612;SDS011;67933;51.060;3.638;2023-07-13T12:47:24;3.25;;;2.40;;
78612;SDS011;67933;51.060;3.638;2023-07-13T12:49:53;4.80;;;2.58;;
78612;SDS011;67933;51.060;3.638;2023-07-13T12:52:27;5.70;;;2.60;;
78612;SDS011;67933;51.060;3.638;2023-07-13T12:55:39;7.03;;;2.47;;
78612;SDS011;67933;51.060;3.638;2023-07-13T12:57:57;5.15;;;2.08;;
78612;SDS011;67933;51.060;3.638;2023-07-13T13:03:06;3.70;;;2.22;;
78612;SDS011;67933;51.060;3.638;2023-07-13T13:05:42;6.22;;;1.92;;
78612;SDS011;67933;51.060;3.638;2023-07-13T13:08:10;4.30;;;1.77;;
78612;SDS011;67933;51.060;3.638;2023-07-13T13:10:36;2.15;;;1.30;;
78612;SDS011;67933;51.060;3.638;2023-07-13T13:13:02;3.75;;;1.52;;
78612;SDS011;67933;51.060;3.638;2023-07-13T13:15:28;3.67;;;1.75;;
78612;SDS011;67933;51.060;3.638;2023-07-13T13:17:55;5.50;;;2.03;;
78612;SDS011;67933;51.060;3.638;2023-07-13T13:20:21;4.20;;;1.80;;
78612;SDS011;67933;51.060;3.638;2023-07-13T13:22:47;4.50;;;1.77;;
78612;SDS011;67933;51.060;3.638;2023-07-13T13:25:13;3.67;;;1.73;;
78612;SDS011;67933;51.060;3.638;2023-07-13T13:30:15;4.88;;;1.85;;
78612;SDS011;67933;51.060;3.638;2023-07-13T13:32:44;3.35;;;1.55;;
78612;SDS011;67933;51.060;3.638;2023-07-13T13:35:15;5.60;;;1.60;;
78612;SDS011;67933;51.060;3.638;2023-07-13T13:37:41;2.85;;;1.70;;
78612;SDS011;67933;51.060;3.638;2023-07-13T13:40:13;4.47;;;1.58;;
78612;SDS011;67933;51.060;3.638;2023-07-13T13:45:07;2.87;;;1.40;;
78612;SDS011;67933;51.060;3.638;2023-07-13T13:47:34;3.53;;;1.73;;
78612;SDS011;67933;51.060;3.638;2023-07-13T13:50:01;2.85;;;1.58;;
78612;SDS011;67933;51.060;3.638;2023-07-13T13:52:27;2.40;;;1.60;;
78612;SDS011;67933;51.060;3.638;2023-07-13T13:54:53;2.22;;;1.40;;
78612;SDS011;67933;51.060;3.638;2023-07-13T13:57:21;4.20;;;1.55;;
78612;SDS011;67933;51.060;3.638;2023-07-13T13:59:48;2.38;;;1.20;;
78612;SDS011;67933;51.060;3.638;2023-07-13T14:02:24;3.42;;;1.48;;
78612;SDS011;67933;51.060;3.638;2023-07-13T14:04:55;2.92;;;1.40;;
78612;SDS011;67933;51.060;3.638;2023-07-13T14:07:24;1.65;;;1.20;;
78612;SDS011;67933;51.060;3.638;2023-07-13T14:09:51;2.17;;;1.33;;
78612;SDS011;67933;51.060;3.638;2023-07-13T14:12:17;3.35;;;1.45;;
78612;SDS011;67933;51.060;3.638;2023-07-13T14:14:43;4.00;;;1.60;;
78612;SDS011;67933;51.060;3.638;2023-07-13T14:17:30;3.35;;;1.60;;
78612;SDS011;67933;51.060;3.638;2023-07-13T14:19:55;2.50;;;1.55;;
78612;SDS011;67933;51.060;3.638;2023-07-13T14:22:25;3.55;;;1.23;;
78612;SDS011;67933;51.060;3.638;2023-07-13T14:24:52;3.78;;;1.63;;
78612;SDS011;67933;51.060;3.638;2023-07-13T14:27:18;5.28;;;1.60;;
78612;SDS011;67933;51.060;3.638;2023-07-13T14:29:44;2.83;;;1.55;;
78612;SDS011;67933;51.060;3.638;2023-07-13T14:32:10;2.45;;;1.10;;
78612;SDS011;67933;51.060;3.638;2023-07-13T14:37:02;3.67;;;1.50;;
78612;SDS011;67933;51.060;3.638;2023-07-13T14:39:29;2.75;;;1.42;;
78612;SDS011;67933;51.060;3.638;2023-07-13T14:41:55;2.00;;;1.42;;
78612;SDS011;67933;51.060;3.638;2023-07-13T14:44:25;5.20;;;1.40;;
78612;SDS011;67933;51.060;3.638;2023-07-13T14:46:54;3.65;;;1.52;;
78612;SDS011;67933;51.060;3.638;2023-07-13T14:49:28;6.35;;;1.67;;
78612;SDS011;67933;51.060;3.638;2023-07-13T14:52:00;2.92;;;1.10;;
78612;SDS011;67933;51.060;3.638;2023-07-13T14:54:28;5.18;;;1.52;;
78612;SDS011;67933;51.060;3.638;2023-07-13T14:56:54;2.85;;;1.40;;
78612;SDS011;67933;51.060;3.638;2023-07-13T14:59:20;2.63;;;1.30;;
78612;SDS011;67933;51.060;3.638;2023-07-13T15:01:45;5.57;;;1.83;;
78612;SDS011;67933;51.060;3.638;2023-07-13T15:09:20;3.33;;;1.17;;
78612;SDS011;67933;51.060;3.638;2023-07-13T15:11:45;3.60;;;1.35;;
78612;SDS011;67933;51.060;3.638;2023-07-13T15:14:11;3.20;;;1.50;;
78612;SDS011;67933;51.060;3.638;2023-07-13T15:16:36;3.13;;;1.48;;
78612;SDS011;67933;51.060;3.638;2023-07-13T15:19:02;2.58;;;1.52;;
78612;SDS011;67933;51.060;3.638;2023-07-13T15:21:27;2.67;;;1.55;;
78612;SDS011;67933;51.060;3.638;2023-07-13T15:23:59;2.65;;;1.52;;
78612;SDS011;67933;51.060;3.638;2023-07-13T15:26:25;5.53;;;1.83;;
78612;SDS011;67933;51.060;3.638;2023-07-13T15:28:51;2.63;;;1.42;;
78612;SDS011;67933;51.060;3.638;2023-07-13T15:31:24;1.75;;;0.88;;
78612;SDS011;67933;51.060;3.638;2023-07-13T15:33:53;3.88;;;1.15;;
78612;SDS011;67933;51.060;3.638;2023-07-13T15:36:20;2.00;;;1.00;;
78612;SDS011;67933;51.060;3.638;2023-07-13T15:38:47;2.88;;;1.35;;
78612;SDS011;67933;51.060;3.638;2023-07-13T15:43:45;2.35;;;1.17;;
78612;SDS011;67933;51.060;3.638;2023-07-13T15:46:11;2.03;;;1.30;;
78612;SDS011;67933;51.060;3.638;2023-07-13T15:48:36;3.50;;;1.20;;
78612;SDS011;67933;51.060;3.638;2023-07-13T15:51:03;3.15;;;1.15;;
78612;SDS011;67933;51.060;3.638;2023-07-13T15:53:32;2.53;;;1.40;;
78612;SDS011;67933;51.060;3.638;2023-07-13T15:55:58;2.88;;;1.25;;
78612;SDS011;67933;51.060;3.638;2023-07-13T15:58:24;3.15;;;1.15;;
78612;SDS011;67933;51.060;3.638;2023-07-13T16:00:50;1.80;;;1.08;;
78612;SDS011;67933;51.060;3.638;2023-07-13T16:03:16;2.63;;;1.40;;